createdAt,value
2023-03-06T00:03:00.931Z,0.5
2023-03-06T00:04:00.968Z,0.7
2023-03-06T00:05:00.969Z,0.4
2023-03-06T00:10:00.922Z,0.4
2023-03-06T00:12:00.950Z,0.5
2023-03-06T00:14:01.100Z,0.6
2023-03-06T00:19:00.935Z,0.5
2023-03-06T00:20:00.946Z,0.6
2023-03-06T00:22:00.950Z,0.6
2023-03-06T00:23:00.971Z,0.5
2023-03-06T00:26:00.974Z,0.6
2023-03-06T00:28:00.957Z,0.4
2023-03-06T00:29:00.951Z,0.5
2023-03-06T00:32:00.999Z,0.5
2023-03-06T00:36:01.139Z,0.6
2023-03-06T00:38:00.974Z,0.5
2023-03-06T00:40:00.968Z,0.5
2023-03-06T00:41:00.996Z,0.3
2023-03-06T00:44:00.950Z,0.6
2023-03-06T00:45:00.934Z,0.5
2023-03-06T00:48:00.949Z,0.4
2023-03-06T00:51:00.910Z,0.6
2023-03-06T00:52:00.910Z,0.5
2023-03-06T00:54:00.921Z,0.6
2023-03-06T00:55:00.923Z,0.3
2023-03-06T00:56:00.922Z,0.5
2023-03-06T00:58:01.062Z,0.4
2023-03-06T01:00:01.001Z,0.5
2023-03-06T01:04:00.933Z,0.4
2023-03-06T01:07:01.007Z,0.4
2023-03-06T01:09:00.936Z,0.5
2023-03-06T01:11:00.960Z,0.6
2023-03-06T01:13:00.920Z,0.3
2023-03-06T01:14:00.936Z,0.5
2023-03-06T01:18:00.994Z,0.4
2023-03-06T01:20:00.995Z,0.5
2023-03-06T01:23:00.943Z,0.4
2023-03-06T01:24:00.947Z,0.5
2023-03-06T01:28:00.963Z,0.6
2023-03-06T01:29:00.957Z,0.5
2023-03-06T01:30:01.035Z,0.4
2023-03-06T01:33:00.935Z,0.5
2023-03-06T01:37:00.938Z,0.4
2023-03-06T01:38:00.942Z,0.5
2023-03-06T01:40:01.037Z,0.4
2023-03-06T01:41:00.978Z,0.6
2023-03-06T01:43:00.987Z,0.5
2023-03-06T01:47:00.995Z,0.4
2023-03-06T01:50:01.020Z,0.5
2023-03-06T01:51:01.083Z,0.4
2023-03-06T01:53:00.949Z,0.5
2023-03-06T01:55:00.922Z,0.3
2023-03-06T01:56:00.957Z,0.5
2023-03-06T01:59:00.966Z,0.5
2023-03-06T02:01:01.025Z,0.3
2023-03-06T02:03:00.961Z,0.4
2023-03-06T02:04:00.955Z,0.3
2023-03-06T02:06:00.990Z,0.4
2023-03-06T02:08:00.946Z,0.3
2023-03-06T02:10:00.930Z,0.2
2023-03-06T02:13:00.920Z,0.1
2023-03-06T02:14:00.971Z,0.2
2023-03-06T02:15:00.928Z,0.1
2023-03-06T02:19:00.934Z,0.2
2023-03-06T02:20:00.958Z,0.1
2023-03-06T02:22:00.964Z,0
2023-03-06T02:23:00.959Z,-0.1
2023-03-06T02:24:00.944Z,0.1
2023-03-06T02:25:00.952Z,0
2023-03-06T02:26:00.947Z,-0.1
2023-03-06T02:31:00.977Z,-0.2
2023-03-06T02:32:01.007Z,-0.1
2023-03-06T02:34:00.959Z,-0.3
2023-03-06T02:36:01.095Z,-0.3
2023-03-06T02:43:00.984Z,-0.4
2023-03-06T02:45:00.956Z,-0.6
2023-03-06T02:46:01.013Z,-0.5
2023-03-06T02:48:00.991Z,-0.4
2023-03-06T02:50:00.959Z,-0.4
2023-03-06T02:55:00.952Z,-0.6
2023-03-06T02:56:01.003Z,-0.7
2023-03-06T02:59:01.062Z,-0.7
2023-03-06T03:04:01.117Z,-0.8
2023-03-06T03:06:00.951Z,-0.8
2023-03-06T03:07:00.950Z,-0.9
2023-03-06T03:08:00.969Z,-0.8
2023-03-06T03:10:00.945Z,-0.7
2023-03-06T03:11:00.962Z,-0.8
2023-03-06T03:14:00.959Z,-0.9
2023-03-06T03:17:00.961Z,-0.8
2023-03-06T03:18:00.948Z,-1
2023-03-06T03:19:00.974Z,-0.9
2023-03-06T03:26:00.960Z,-1
2023-03-06T03:32:00.989Z,-1.1
2023-03-06T03:36:01.140Z,-1
2023-03-06T03:38:00.931Z,-1.1
2023-03-06T03:39:00.955Z,-1
2023-03-06T03:40:00.934Z,-1.1
2023-03-06T03:41:00.973Z,-1
2023-03-06T03:42:00.976Z,-1.1
2023-03-06T03:44:00.980Z,-0.9
2023-03-06T03:45:00.996Z,-1.1
2023-03-06T03:47:00.918Z,-1.1
2023-03-06T03:49:00.915Z,-1
2023-03-06T03:51:00.935Z,-1.1
2023-03-06T03:54:00.990Z,-1
2023-03-06T03:57:00.919Z,-1
2023-03-06T03:58:00.949Z,-1.1
2023-03-06T04:00:00.926Z,-1
2023-03-06T04:02:01.023Z,-1
2023-03-06T04:10:00.967Z,-1.1
2023-03-06T04:13:00.909Z,-1
2023-03-06T04:18:00.939Z,-1.1
2023-03-06T04:19:00.917Z,-1
2023-03-06T04:21:00.935Z,-1.1
2023-03-06T04:24:00.991Z,-1
2023-03-06T04:27:00.988Z,-1.1
2023-03-06T04:29:00.946Z,-1
2023-03-06T04:30:00.985Z,-1.1
2023-03-06T04:35:00.988Z,-0.9
2023-03-06T04:38:00.990Z,-1
2023-03-06T04:40:00.962Z,-1
2023-03-06T04:41:00.998Z,-0.9
2023-03-06T04:43:00.934Z,-0.9
2023-03-06T04:48:00.990Z,-1
2023-03-06T04:50:01.004Z,-1
2023-03-06T05:00:01.071Z,-0.8
2023-03-06T05:03:00.969Z,-1
2023-03-06T05:05:00.945Z,-0.9
2023-03-06T05:06:00.921Z,-0.8
2023-03-06T05:08:00.942Z,-0.9
2023-03-06T05:10:00.961Z,-0.9
2023-03-06T05:13:00.918Z,-0.9
2023-03-06T05:14:00.952Z,-0.8
2023-03-06T05:15:00.982Z,-0.7
2023-03-06T05:18:01.011Z,-0.6
2023-03-06T05:20:01.008Z,-0.8
2023-03-06T05:22:00.929Z,-0.7
2023-03-06T05:30:01.085Z,-0.5
2023-03-06T05:32:01.091Z,-0.7
2023-03-06T05:35:00.936Z,-0.5
2023-03-06T05:36:00.969Z,-0.6
2023-03-06T05:38:00.936Z,-0.7
2023-03-06T05:39:00.915Z,-0.6
2023-03-06T05:46:00.979Z,-0.5
2023-03-06T05:50:00.963Z,-0.6
2023-03-06T05:52:00.945Z,-0.5
2023-03-06T05:54:00.955Z,-0.4
2023-03-06T05:55:00.912Z,-0.5
2023-03-06T05:58:00.959Z,-0.4
2023-03-06T06:00:00.976Z,-0.5
2023-03-06T06:02:01.059Z,-0.3
2023-03-06T06:03:01.016Z,-0.4
2023-03-06T06:05:01.185Z,-0.3
2023-03-06T06:07:01.064Z,-0.5
2023-03-06T06:08:01.182Z,-0.4
2023-03-06T06:13:01.039Z,-0.3
2023-03-06T06:20:01.070Z,-0.2
2023-03-06T06:23:01.004Z,-0.2
2023-03-06T06:25:00.984Z,-0.3
2023-03-06T06:26:01.021Z,-0.2
2023-03-06T06:28:01.009Z,-0.3
2023-03-06T06:29:00.976Z,-0.2
2023-03-06T06:33:01.142Z,-0.3
2023-03-06T06:35:01.000Z,-0.1
2023-03-06T06:39:01.031Z,0
2023-03-06T06:40:01.123Z,-0.2
2023-03-06T06:42:21.007Z,0
2023-03-06T06:44:01.015Z,-0.1
2023-03-06T06:45:01.270Z,0
2023-03-06T06:47:23.318Z,0
2023-03-06T06:49:01.032Z,0.1
2023-03-06T06:50:01.081Z,0
2023-03-06T06:51:01.098Z,0.1
2023-03-06T06:53:00.978Z,0
2023-03-06T06:54:00.995Z,0.2
2023-03-06T06:56:00.989Z,0.1
2023-03-06T07:00:00.944Z,0
2023-03-06T07:01:00.932Z,0.2
2023-03-06T07:03:00.958Z,0.1
2023-03-06T07:04:01.017Z,0.2
2023-03-06T07:06:00.933Z,0.1
2023-03-06T07:07:00.963Z,0.3
2023-03-06T07:09:01.001Z,0.2
2023-03-06T07:11:00.923Z,0.4
2023-03-06T07:12:00.960Z,0.3
2023-03-06T07:14:00.935Z,0.3
2023-03-06T07:17:00.931Z,0.4
2023-03-06T07:24:00.952Z,0.3
2023-03-06T07:26:00.991Z,0.4
2023-03-06T07:28:01.069Z,0.5
2023-03-06T07:30:01.063Z,0.6
2023-03-06T07:35:18.908Z,0.6
2023-03-06T07:37:00.936Z,0.4
2023-03-06T07:38:00.944Z,0.6
2023-03-06T07:43:13.172Z,0.7
2023-03-06T07:46:00.997Z,0.8
2023-03-06T07:48:00.959Z,0.7
2023-03-06T07:49:00.998Z,0.8
2023-03-06T07:51:00.980Z,1
2023-03-06T07:53:00.897Z,1
2023-03-06T07:54:00.924Z,1.1
2023-03-06T07:57:00.989Z,1.2
2023-03-06T07:59:00.975Z,1.3
2023-03-06T08:01:00.982Z,1.2
2023-03-06T08:03:00.956Z,1.4
2023-03-06T08:04:00.991Z,1.5
2023-03-06T08:06:00.994Z,1.3
2023-03-06T08:08:00.932Z,1.4
2023-03-06T08:15:00.906Z,1.6
2023-03-06T08:21:00.966Z,1.7
2023-03-06T08:23:00.921Z,1.6
2023-03-06T08:25:00.971Z,1.7
2023-03-06T08:26:00.987Z,1.6
2023-03-06T08:29:00.947Z,1.6
2023-03-06T08:30:01.142Z,1.7
2023-03-06T08:32:00.987Z,1.8
2023-03-06T08:34:00.951Z,1.9
2023-03-06T08:38:00.921Z,1.8
2023-03-06T08:42:00.955Z,2.2
2023-03-06T08:44:00.930Z,2.3
2023-03-06T08:48:00.957Z,2.4
2023-03-06T08:50:01.012Z,2.5
2023-03-06T08:52:00.922Z,2.6
2023-03-06T08:53:00.953Z,2.7
2023-03-06T08:54:01.006Z,2.6
2023-03-06T08:57:00.939Z,2.8
2023-03-06T08:58:00.951Z,2.7
2023-03-06T09:06:00.918Z,2.7
2023-03-06T09:07:00.949Z,2.8
2023-03-06T09:11:00.909Z,2.8
2023-03-06T09:12:00.920Z,2.7
2023-03-06T09:13:00.948Z,2.9
2023-03-06T09:17:00.906Z,2.8
2023-03-06T09:19:00.950Z,2.9
2023-03-06T09:20:00.941Z,2.8
2023-03-06T09:23:00.901Z,3
2023-03-06T09:24:00.932Z,2.9
2023-03-06T09:27:00.961Z,3
2023-03-06T09:29:00.956Z,3
2023-03-06T09:31:01.033Z,3.1
2023-03-06T09:33:00.906Z,3.1
2023-03-06T09:34:00.930Z,3.2
2023-03-06T09:38:00.967Z,3.4
2023-03-06T09:40:00.947Z,3.5
2023-03-06T09:44:00.937Z,3.6
2023-03-06T09:46:01.017Z,3.5
2023-03-06T09:48:00.944Z,3.6
2023-03-06T09:50:00.931Z,3.5
2023-03-06T09:52:00.983Z,3.6
2023-03-06T10:04:00.973Z,3.6
2023-03-06T10:07:00.926Z,3.8
2023-03-06T10:10:00.987Z,4
2023-03-06T10:14:00.996Z,4.1
2023-03-06T10:15:00.976Z,4
2023-03-06T10:17:00.929Z,4.1
2023-03-06T10:18:00.936Z,4.2
2023-03-06T10:21:13.578Z,4.2
2023-03-06T10:22:00.968Z,4.1
2023-03-06T10:26:01.012Z,3.9
2023-03-06T10:29:00.921Z,3.8
2023-03-06T10:30:03.470Z,3.9
2023-03-06T10:34:00.980Z,3.9
2023-03-06T10:35:01.033Z,4
2023-03-06T10:39:00.951Z,4
2023-03-06T10:43:10.997Z,3.9
2023-03-06T10:44:01.065Z,4
2023-03-06T10:46:00.970Z,3.9
2023-03-06T10:48:01.010Z,4
2023-03-06T10:50:00.959Z,4
2023-03-06T10:51:02.801Z,3.9
2023-03-06T10:53:00.920Z,4
2023-03-06T10:55:01.001Z,3.9
2023-03-06T10:56:00.978Z,4.1
2023-03-06T10:58:00.953Z,4.1
2023-03-06T10:59:00.965Z,3.9
2023-03-06T11:00:01.016Z,4
2023-03-06T11:02:00.988Z,3.9
2023-03-06T11:04:00.928Z,3.9
2023-03-06T11:05:00.973Z,4
2023-03-06T11:08:00.934Z,4
2023-03-06T11:09:01.004Z,4.1
2023-03-06T11:14:00.962Z,4.1
2023-03-06T11:15:00.990Z,4
2023-03-06T11:17:00.917Z,4.1
2023-03-06T11:18:00.952Z,4
2023-03-06T11:21:00.997Z,4.2
2023-03-06T11:23:00.983Z,4.1
2023-03-06T11:26:00.938Z,4.4
2023-03-06T11:28:00.985Z,4.3
2023-03-06T11:30:01.025Z,4.6
2023-03-06T11:32:00.977Z,4.6
2023-03-06T11:35:00.913Z,4.4
2023-03-06T11:40:00.939Z,4.2
2023-03-06T11:42:00.922Z,4
2023-03-06T11:43:00.925Z,4.1
2023-03-06T11:44:00.964Z,4
2023-03-06T11:46:01.024Z,3.9
2023-03-06T11:48:00.922Z,3.8
2023-03-06T11:50:00.970Z,3.7
2023-03-06T11:52:00.967Z,3.6
2023-03-06T11:57:00.943Z,3.9
2023-03-06T11:59:00.936Z,3.8
2023-03-06T12:00:00.965Z,4
2023-03-06T12:04:00.929Z,4.2
2023-03-06T12:05:01.002Z,4.1
2023-03-06T12:06:00.945Z,4.2
2023-03-06T12:10:00.931Z,4.4
2023-03-06T12:16:00.990Z,4.5
2023-03-06T12:18:00.912Z,4.3
2023-03-06T12:23:14.384Z,4.2
2023-03-06T12:24:00.928Z,4.1
2023-03-06T12:25:00.969Z,4.2
2023-03-06T12:26:00.965Z,4.1
2023-03-06T12:28:00.944Z,4.2
2023-03-06T12:30:01.011Z,4.2
2023-03-06T12:35:01.022Z,4
2023-03-06T12:36:00.931Z,4.1
2023-03-06T12:38:00.929Z,4
2023-03-06T12:41:00.909Z,4.1
2023-03-06T12:43:00.899Z,4.2
2023-03-06T12:44:00.984Z,4.3
2023-03-06T12:47:00.915Z,4.5
2023-03-06T12:48:00.935Z,4.4
2023-03-06T12:49:00.984Z,4.5
2023-03-06T12:51:00.967Z,4.7
2023-03-06T12:52:01.033Z,4.6
2023-03-06T12:55:01.033Z,4.7
2023-03-06T12:56:00.994Z,4.8
2023-03-06T12:58:00.964Z,4.8
2023-03-06T12:59:00.924Z,4.7
2023-03-06T13:00:01.089Z,4.9
2023-03-06T13:02:00.975Z,4.9
2023-03-06T13:04:01.041Z,4.9
2023-03-06T13:06:00.943Z,5
2023-03-06T13:08:00.931Z,4.9
2023-03-06T13:11:01.018Z,4.8
2023-03-06T13:13:01.062Z,4.8
2023-03-06T13:14:00.981Z,4.9
2023-03-06T13:15:01.181Z,5
2023-03-06T13:17:00.976Z,5.1
2023-03-06T13:19:00.976Z,5.1
2023-03-06T13:21:01.025Z,5.1
2023-03-06T13:23:00.956Z,5.1
2023-03-06T13:24:01.018Z,5.2
2023-03-06T13:26:01.035Z,5.2
2023-03-06T13:28:00.955Z,5.2
2023-03-06T13:34:00.945Z,5.1
2023-03-06T13:35:00.997Z,5
2023-03-06T13:36:01.010Z,5.1
2023-03-06T13:38:00.945Z,5
2023-03-06T13:41:00.966Z,4.9
2023-03-06T13:42:00.964Z,4.8
2023-03-06T13:45:00.983Z,4.5
2023-03-06T13:46:00.966Z,4.3
2023-03-06T13:49:00.972Z,4.2
2023-03-06T13:51:00.948Z,4
2023-03-06T13:53:01.005Z,3.9
2023-03-06T13:55:00.931Z,3.8
2023-03-06T13:56:00.977Z,3.6
2023-03-06T13:58:00.940Z,3.5
2023-03-06T14:00:08.531Z,3.3
2023-03-06T14:02:01.008Z,3.1
2023-03-06T14:04:00.956Z,2.9
2023-03-06T14:06:00.953Z,2.7
2023-03-06T14:07:00.962Z,2.8
2023-03-06T14:08:00.938Z,2.6
2023-03-06T14:11:00.977Z,2.4
2023-03-06T14:14:00.962Z,2.4
2023-03-06T14:15:00.982Z,2.3
2023-03-06T14:19:01.082Z,2.2
2023-03-06T14:21:00.984Z,2.4
2023-03-06T14:23:00.920Z,2.3
2023-03-06T14:25:00.974Z,2.2
2023-03-06T14:26:00.943Z,2.4
2023-03-06T14:29:00.986Z,2.4
2023-03-06T14:30:01.009Z,2.3
2023-03-06T14:35:01.016Z,2.3
2023-03-06T14:38:00.926Z,2.3
2023-03-06T14:42:00.964Z,2.2
2023-03-06T14:43:00.943Z,2.3
2023-03-06T14:44:00.939Z,2.2
2023-03-06T14:48:00.979Z,2.3
2023-03-06T14:50:00.975Z,2.3
2023-03-06T14:51:00.969Z,2.2
2023-03-06T14:54:00.941Z,2.1
2023-03-06T14:55:00.953Z,2.2
2023-03-06T15:01:00.956Z,2.1
2023-03-06T15:02:01.048Z,2.2
2023-03-06T15:05:00.957Z,2.1
2023-03-06T15:06:00.970Z,2.2
2023-03-06T15:07:01.050Z,2.1
2023-03-06T15:09:00.933Z,2.3
2023-03-06T15:10:00.941Z,2.1
2023-03-06T15:12:01.009Z,2.2
2023-03-06T15:14:00.988Z,2.3
2023-03-06T15:16:01.028Z,2.4
2023-03-06T15:18:00.939Z,2.4
2023-03-06T15:21:00.941Z,2.5
2023-03-06T15:22:00.957Z,2.4
2023-03-06T15:23:01.017Z,2.5
2023-03-06T15:25:00.947Z,2.5
2023-03-06T15:26:00.925Z,2.6
2023-03-06T15:27:00.929Z,2.4
2023-03-06T15:28:00.939Z,2.5
2023-03-06T15:30:01.011Z,2.6
2023-03-06T15:32:01.006Z,2.5
2023-03-06T15:35:00.921Z,2.5
2023-03-06T15:36:01.047Z,2.6
2023-03-06T15:38:00.940Z,2.5
2023-03-06T15:40:01.016Z,2.5
2023-03-06T15:43:00.899Z,2.5
2023-03-06T15:44:00.925Z,2.4
2023-03-06T15:47:08.627Z,2.5
2023-03-06T15:48:00.926Z,2.4
2023-03-06T15:53:00.993Z,2.1
2023-03-06T15:55:00.926Z,2.1
2023-03-06T15:56:00.938Z,2
2023-03-06T15:57:00.980Z,2.1
2023-03-06T15:59:00.960Z,1.8
2023-03-06T16:01:00.968Z,1.7
2023-03-06T16:05:00.928Z,1.8
2023-03-06T16:06:01.007Z,1.6
2023-03-06T16:07:01.035Z,1.7
2023-03-06T16:09:00.971Z,1.5
2023-03-06T16:10:00.979Z,1.6
2023-03-06T16:16:00.953Z,1.5
2023-03-06T16:17:01.057Z,1.7
2023-03-06T16:21:00.915Z,1.5
2023-03-06T16:22:00.921Z,1.6
2023-03-06T16:25:00.946Z,1.7
2023-03-06T16:26:00.918Z,1.5
2023-03-06T16:29:00.981Z,1.6
2023-03-06T16:30:00.995Z,1.5
2023-03-06T16:34:00.924Z,1.6
2023-03-06T16:35:00.931Z,1.5
2023-03-06T16:36:00.963Z,1.6
2023-03-06T16:37:00.992Z,1.5
2023-03-06T16:38:00.959Z,1.7
2023-03-06T16:39:00.954Z,1.6
2023-03-06T16:43:00.913Z,1.6
2023-03-06T16:44:00.952Z,1.5
2023-03-06T16:45:00.965Z,1.6
2023-03-06T16:47:00.936Z,1.5
2023-03-06T16:48:00.972Z,1.6
2023-03-06T16:50:01.005Z,1.7
2023-03-06T16:51:00.984Z,1.5
2023-03-06T16:53:00.966Z,1.5
2023-03-06T16:56:00.978Z,1.6
2023-03-06T16:57:00.966Z,1.7
2023-03-06T16:58:00.973Z,1.5
2023-03-06T17:00:01.161Z,1.5
2023-03-06T17:02:00.954Z,1.7
2023-03-06T17:04:00.978Z,1.6
2023-03-06T17:06:00.948Z,1.5
2023-03-06T17:07:00.935Z,1.6
2023-03-06T17:08:00.961Z,1.7
2023-03-06T17:09:00.964Z,1.6
2023-03-06T17:15:01.119Z,1.5
2023-03-06T17:17:00.950Z,1.5
2023-03-06T17:18:00.961Z,1.7
2023-03-06T17:19:00.995Z,1.5
2023-03-06T17:21:01.026Z,1.6
2023-03-06T17:25:01.006Z,1.6
2023-03-06T17:27:00.980Z,1.5
2023-03-06T17:28:01.095Z,1.4
2023-03-06T17:31:01.022Z,1.4
2023-03-06T17:33:00.999Z,1.3
2023-03-06T17:35:00.968Z,1.3
2023-03-06T17:36:01.028Z,1.5
2023-03-06T17:38:01.006Z,1.5
2023-03-06T17:40:00.981Z,1.5
2023-03-06T17:43:00.975Z,1.3
2023-03-06T17:44:00.997Z,1.4
2023-03-06T17:46:01.026Z,1.3
2023-03-06T17:47:01.028Z,1.4
2023-03-06T17:52:01.102Z,1.5
2023-03-06T17:53:01.101Z,1.4
2023-03-06T17:57:01.094Z,1.3
2023-03-06T17:58:01.102Z,1.4
2023-03-06T18:03:01.254Z,1.5
2023-03-06T18:05:01.212Z,1.4
2023-03-06T18:08:00.981Z,1.5
2023-03-06T18:13:00.994Z,1.5
2023-03-06T18:14:00.985Z,1.4
2023-03-06T18:17:00.976Z,1.5
2023-03-06T18:18:01.031Z,1.3
2023-03-06T18:20:00.962Z,1.4
2023-03-06T18:24:00.957Z,1.5
2023-03-06T18:26:00.991Z,1.4
2023-03-06T18:31:00.980Z,1.3
2023-03-06T18:33:00.952Z,1.4
2023-03-06T18:34:00.971Z,1.3
2023-03-06T18:38:00.946Z,1.3
2023-03-06T18:39:00.980Z,1.4
2023-03-06T18:46:01.047Z,1.2
2023-03-06T18:48:01.014Z,1.3
2023-03-06T18:49:01.011Z,1.4
2023-03-06T18:50:00.983Z,1.3
2023-03-06T18:55:00.955Z,1.2
2023-03-06T18:57:00.960Z,1.3
2023-03-06T18:59:00.951Z,1.3
2023-03-06T19:00:01.024Z,1.2
2023-03-06T19:02:01.005Z,1.2
2023-03-06T19:03:01.068Z,1.3
2023-03-06T19:06:01.010Z,1.3
2023-03-06T19:08:00.987Z,1.2
2023-03-06T19:09:00.966Z,1.3
2023-03-06T19:11:00.937Z,1.4
2023-03-06T19:12:00.941Z,1.2
2023-03-06T19:14:01.060Z,1.3
2023-03-06T19:17:00.978Z,1.1
2023-03-06T19:18:01.045Z,1.2
2023-03-06T19:20:00.954Z,1.2
2023-03-06T19:23:00.976Z,1.1
2023-03-06T19:24:00.963Z,1.3
2023-03-06T19:25:03.433Z,1.1
2023-03-06T19:27:00.927Z,1.2
2023-03-06T19:28:00.983Z,1.3
2023-03-06T19:29:00.986Z,1.2
2023-03-06T19:31:00.947Z,1.1
2023-03-06T19:37:00.940Z,1
2023-03-06T19:39:00.921Z,1.2
2023-03-06T19:40:00.963Z,1.1
2023-03-06T19:43:00.933Z,1
2023-03-06T19:44:00.957Z,1.1
2023-03-06T19:47:00.941Z,1
2023-03-06T19:49:01.003Z,1.1
2023-03-06T19:51:00.983Z,1.1
2023-03-06T19:52:00.982Z,1
2023-03-06T19:55:00.965Z,0.9
2023-03-06T19:58:00.983Z,1
2023-03-06T19:59:00.970Z,0.8
2023-03-06T20:00:01.049Z,0.9
2023-03-06T20:03:00.929Z,0.9
2023-03-06T20:04:01.001Z,1
2023-03-06T20:06:01.005Z,1
2023-03-06T20:08:00.993Z,1
2023-03-06T20:10:00.955Z,0.9
2023-03-06T20:14:00.940Z,1
2023-03-06T20:16:00.978Z,0.8
2023-03-06T20:17:00.963Z,0.9
2023-03-06T20:22:00.949Z,0.8
2023-03-06T20:23:00.968Z,0.7
2023-03-06T20:25:00.911Z,0.7
2023-03-06T20:26:00.965Z,0.8
2023-03-06T20:30:00.947Z,0.7
2023-03-06T20:32:01.090Z,0.7
2023-03-06T20:37:00.943Z,0.8
2023-03-06T20:38:00.965Z,0.7
2023-03-06T20:41:00.949Z,0.6
2023-03-06T20:47:00.946Z,0.6
2023-03-06T20:48:00.974Z,0.7
2023-03-06T20:52:00.934Z,0.7
2023-03-06T20:54:00.924Z,0.6
2023-03-06T20:55:00.919Z,0.7
2023-03-06T20:56:01.001Z,0.6
2023-03-06T20:59:00.990Z,0.6
2023-03-06T21:01:02.440Z,0.8
2023-03-06T21:03:00.932Z,0.7
2023-03-06T21:04:00.923Z,0.8
2023-03-06T21:09:00.976Z,0.9
2023-03-06T21:11:00.931Z,0.9
2023-03-06T21:15:01.012Z,1
2023-03-06T21:17:00.905Z,0.9
2023-03-06T21:18:00.955Z,1
2023-03-06T21:20:01.002Z,1
2023-03-06T21:23:00.917Z,0.9
2023-03-06T21:24:00.921Z,1
2023-03-06T21:25:00.960Z,0.9
2023-03-06T21:26:00.953Z,0.8
2023-03-06T21:29:00.973Z,0.9
2023-03-06T21:30:01.061Z,0.8
2023-03-06T21:33:00.961Z,1
2023-03-06T21:34:03.069Z,0.9
2023-03-06T21:36:01.003Z,0.9
2023-03-06T21:37:00.928Z,1
2023-03-06T21:38:01.159Z,0.9
2023-03-06T21:40:00.951Z,0.9
2023-03-06T21:41:00.979Z,0.8
2023-03-06T21:43:00.956Z,0.9
2023-03-06T21:45:00.956Z,0.9
2023-03-06T21:47:00.980Z,0.8
2023-03-06T21:49:00.949Z,0.8
2023-03-06T21:50:01.017Z,0.9
2023-03-06T21:53:00.963Z,0.9
2023-03-06T21:55:00.978Z,1
2023-03-06T21:56:00.992Z,0.9
2023-03-06T21:59:00.930Z,1
2023-03-06T22:00:00.997Z,0.9
2023-03-06T22:07:00.948Z,1
2023-03-06T22:09:00.946Z,0.9
2023-03-06T22:10:01.026Z,0.8
2023-03-06T22:13:00.931Z,0.9
2023-03-06T22:14:00.942Z,1
2023-03-06T22:15:00.956Z,0.8
2023-03-06T22:16:00.986Z,0.9
2023-03-06T22:18:00.948Z,0.9
2023-03-06T22:20:00.944Z,0.8
2023-03-06T22:22:00.999Z,1
2023-03-06T22:24:01.011Z,1
2023-03-06T22:29:00.972Z,1
2023-03-06T22:31:00.990Z,0.9
2023-03-06T22:33:00.963Z,1.1
2023-03-06T22:34:00.987Z,0.9
2023-03-06T22:38:00.959Z,0.8
2023-03-06T22:40:00.980Z,0.9
2023-03-06T22:42:00.947Z,1
2023-03-06T22:45:00.961Z,0.8
2023-03-06T22:46:00.989Z,0.9
2023-03-06T22:49:00.987Z,0.8
2023-03-06T22:52:00.949Z,0.9
2023-03-06T22:54:00.964Z,1
2023-03-06T22:56:00.953Z,1
2023-03-06T22:57:00.969Z,0.9
2023-03-06T22:58:00.967Z,0.8
2023-03-06T23:01:00.936Z,1
2023-03-06T23:02:00.952Z,0.8
2023-03-06T23:03:00.926Z,1
2023-03-06T23:06:01.017Z,1
2023-03-06T23:09:00.919Z,0.9
2023-03-06T23:10:01.006Z,1
2023-03-06T23:14:00.938Z,0.9
2023-03-06T23:15:01.023Z,1.1
2023-03-06T23:18:00.944Z,0.9
2023-03-06T23:21:00.945Z,1
2023-03-06T23:23:00.918Z,1.1
2023-03-06T23:24:00.973Z,1
2023-03-06T23:26:00.949Z,1
2023-03-06T23:28:00.972Z,1.1
2023-03-06T23:30:01.079Z,1.1
2023-03-06T23:33:00.930Z,1.1
2023-03-06T23:38:00.928Z,1
2023-03-06T23:40:00.935Z,1.2
2023-03-06T23:41:01.014Z,1.1
2023-03-06T23:43:00.960Z,1
2023-03-06T23:44:00.946Z,1.1
2023-03-06T23:49:00.934Z,1.1
2023-03-06T23:51:00.921Z,1
2023-03-06T23:56:00.988Z,1.2
